Time;durP1;ratioP1;P1;durP2;ratioP2;P2;SDS_P1;SDS_P2;PMS_P1;PMS_P2;Temp;Humidity;BMP_temperature;BMP_pressure;BME280_temperature;BME280_humidity;BME280_pressure;Samples;Min_cycle;Max_cycle;Signal;HPM_P1;HPM_P2
2021/09/02 00:03:56;;;;;;;12.70;8.60;;;;;;;15.43;71.03;99565.74;233839;1200;138962;-67
2021/09/02 00:08:59;;;;;;;17.20;8.60;;;;;;;15.39;71.10;99561.73;234035;1197;138712;-66
2021/09/02 00:14:02;;;;;;;20.40;8.30;;;;;;;15.33;71.13;99563.76;233993;1199;140142;-67
2021/09/02 00:19:05;;;;;;;14.40;8.80;;;;;;;15.37;71.22;99572.44;233230;1200;138880;-70
2021/09/02 00:24:08;;;;;;;14.40;9.10;;;;;;;15.38;71.16;99571.08;233511;1198;138798;-64
2021/09/02 00:29:15;;;;;;;18.10;8.90;;;;;;;15.35;71.13;99570.39;234058;1199;139379;-71
2021/09/02 00:34:19;;;;;;;16.50;8.20;;;;;;;15.27;71.18;99567.04;233956;1200;138496;-70
2021/09/02 00:39:23;;;;;;;11.80;7.50;;;;;;;15.28;71.14;99574.89;233486;1200;139107;-65
2021/09/02 00:44:31;;;;;;;15.40;7.90;;;;;;;15.27;71.22;99575.66;234019;1201;139102;-63
2021/09/02 00:49:36;;;;;;;16.00;8.10;;;;;;;15.26;71.34;99574.64;234010;1199;138645;-64
2021/09/02 00:54:55;;;;;;;17.00;9.70;;;;;;;15.23;71.30;99573.42;233862;1199;139983;-63
2021/09/02 01:00:00;;;;;;;16.40;8.90;;;;;;;15.18;71.15;99572.96;234117;1198;139025;-63
2021/09/02 01:05:04;;;;;;;15.10;8.90;;;;;;;15.16;71.36;99570.23;233763;1199;141012;-64
2021/09/02 01:10:09;;;;;;;15.70;8.90;;;;;;;15.20;71.48;99574.61;233949;1198;140969;-64
2021/09/02 01:15:19;;;;;;;14.60;8.30;;;;;;;15.24;71.57;99582.66;234042;1200;139536;-64
2021/09/02 01:20:25;;;;;;;16.10;8.90;;;;;;;15.21;71.44;99586.14;234024;1198;139164;-65
2021/09/02 01:25:32;;;;;;;;;;;;;;;15.19;71.51;99587.50;234038;1200;138791;-64
2021/09/02 01:30:37;;;;;;;15.40;7.90;;;;;;;15.17;71.55;99585.70;234113;1198;126052;-66
2021/09/02 01:35:40;;;;;;;12.60;8.00;;;;;;;15.18;71.51;99575.23;234016;1200;140394;-64
2021/09/02 01:40:46;;;;;;;13.20;7.80;;;;;;;15.20;71.50;99579.07;234050;1198;138650;-64
2021/09/02 01:45:49;;;;;;;13.30;7.60;;;;;;;15.17;71.54;99574.95;234172;1200;138852;-68
2021/09/02 01:50:52;;;;;;;12.80;7.30;;;;;;;15.14;71.46;99571.81;234077;1198;138804;-66
2021/09/02 01:55:56;;;;;;;10.40;7.10;;;;;;;15.13;71.46;99570.25;234029;1198;139202;-64
2021/09/02 02:00:59;;;;;;;12.90;7.00;;;;;;;15.14;71.47;99567.50;233741;1200;139204;-62
2021/09/02 02:06:02;;;;;;;15.20;7.50;;;;;;;15.14;71.55;99563.92;234076;1199;139049;-64
2021/09/02 02:11:05;;;;;;;14.10;8.20;;;;;;;15.13;71.39;99563.79;234096;1198;139089;-65
2021/09/02 02:16:08;;;;;;;14.20;7.50;;;;;;;15.11;71.46;99564.34;233728;1198;139359;-67
2021/09/02 02:21:11;;;;;;;11.80;7.20;;;;;;;15.10;71.29;99566.55;233181;1199;139204;-69
2021/09/02 02:26:14;;;;;;;12.30;8.10;;;;;;;15.08;71.31;99565.38;234027;1199;139036;-70
2021/09/02 02:31:18;;;;;;;14.40;7.80;;;;;;;15.07;71.46;99562.63;234071;1199;140755;-67
2021/09/02 02:36:21;;;;;;;49.50;37.60;;;;;;;15.05;71.55;99569.20;234139;1198;138337;-67
2021/09/02 02:41:24;;;;;;;36.60;22.80;;;;;;;15.05;71.66;99570.06;234058;1198;138675;-65
2021/09/02 02:46:27;;;;;;;16.00;8.70;;;;;;;15.12;71.55;99577.61;233864;1201;139369;-65
2021/09/02 02:51:30;;;;;;;209.20;176.30;;;;;;;15.15;71.34;99571.71;234036;1200;139388;-63
2021/09/02 02:56:33;;;;;;;16.60;10.00;;;;;;;15.17;71.73;99561.02;234079;1198;138662;-65
2021/09/02 03:01:37;;;;;;;15.10;10.00;;;;;;;15.17;71.38;99560.48;234065;1199;139424;-64
2021/09/02 03:06:41;;;;;;;13.50;9.70;;;;;;;15.15;71.39;99565.98;234054;1201;138898;-68
2021/09/02 03:11:44;;;;;;;19.70;9.30;;;;;;;15.13;71.45;99573.80;234012;1198;140285;-72
2021/09/02 03:16:47;;;;;;;15.40;9.90;;;;;;;15.16;71.50;99578.77;234202;1198;139952;-66
2021/09/02 03:21:50;;;;;;;200.80;143.60;;;;;;;15.21;71.84;99582.70;234156;1199;140118;-66
2021/09/02 03:26:53;;;;;;;19.90;10.60;;;;;;;15.25;71.43;99585.23;234029;1200;140501;-67
2021/09/02 03:31:56;;;;;;;15.10;8.90;;;;;;;15.15;71.03;99585.31;234043;1199;139880;-69
2021/09/02 03:36:59;;;;;;;15.70;8.20;;;;;;;15.01;70.88;99590.43;234117;1198;138998;-64
2021/09/02 03:42:02;;;;;;;13.40;9.60;;;;;;;14.92;71.14;99593.55;234110;1199;138725;-64
2021/09/02 03:47:05;;;;;;;18.60;9.70;;;;;;;14.90;71.15;99592.25;234048;1199;138900;-65
2021/09/02 03:52:08;;;;;;;15.20;9.10;;;;;;;14.85;71.04;99593.72;234156;1200;140200;-65
2021/09/02 03:57:11;;;;;;;18.20;9.10;;;;;;;14.78;71.13;99601.66;234084;1198;139315;-65
2021/09/02 04:02:14;;;;;;;14.80;8.90;;;;;;;14.74;71.11;99604.44;234027;1201;139477;-66
2021/09/02 04:07:17;;;;;;;16.30;8.70;;;;;;;14.71;71.21;99608.80;234042;1201;140393;-64
2021/09/02 04:12:20;;;;;;;17.70;8.20;;;;;;;14.68;71.27;99612.20;234081;1201;139101;-65
2021/09/02 04:17:23;;;;;;;17.40;8.60;;;;;;;14.65;71.40;99627.39;233936;1198;140108;-63
2021/09/02 04:22:26;;;;;;;19.10;9.40;;;;;;;14.59;71.34;99625.52;233862;1200;138663;-62
2021/09/02 04:27:30;;;;;;;20.60;7.90;;;;;;;14.57;71.47;99625.65;234056;1201;140618;-62
2021/09/02 04:32:33;;;;;;;15.40;8.30;;;;;;;14.57;71.50;99622.05;234087;1201;138946;-62
2021/09/02 04:37:38;;;;;;;15.40;8.00;;;;;;;14.60;71.54;99624.92;233495;1201;138653;-67
2021/09/02 04:42:42;;;;;;;12.90;7.40;;;;;;;14.60;71.56;99627.20;234025;1201;140498;-63
2021/09/02 04:47:45;;;;;;;14.90;7.60;;;;;;;14.58;71.53;99634.86;233891;1201;139198;-65
2021/09/02 04:52:48;;;;;;;16.40;6.90;;;;;;;14.59;71.53;99644.13;234103;1198;138964;-67
2021/09/02 04:57:51;;;;;;;13.90;6.80;;;;;;;14.61;71.68;99643.95;233496;1200;139392;-64
2021/09/02 05:02:55;;;;;;;12.70;6.30;;;;;;;14.68;71.72;99644.92;234014;1201;138960;-64
2021/09/02 05:07:59;;;;;;;11.80;6.60;;;;;;;14.72;71.66;99649.41;233907;1196;138319;-63
2021/09/02 05:13:02;;;;;;;16.10;6.10;;;;;;;14.73;71.60;99656.86;234068;1200;138577;-64
2021/09/02 05:18:05;;;;;;;12.70;6.20;;;;;;;14.72;71.47;99655.36;233951;1201;138345;-66
2021/09/02 05:23:08;;;;;;;9.00;6.00;;;;;;;14.71;71.55;99665.57;233769;1200;139686;-67
2021/09/02 05:28:11;;;;;;;13.00;7.00;;;;;;;14.76;71.54;99669.55;234178;1201;138583;-62
2021/09/02 05:33:14;;;;;;;14.80;6.60;;;;;;;14.81;71.55;99669.72;233947;1199;138725;-64
2021/09/02 05:38:17;;;;;;;13.50;6.60;;;;;;;14.83;71.57;99669.39;234078;1198;138967;-63
2021/09/02 05:43:21;;;;;;;11.10;6.30;;;;;;;14.88;71.67;99671.92;233922;1199;140331;-63
2021/09/02 05:48:24;;;;;;;16.90;6.80;;;;;;;14.90;71.44;99670.48;233978;1199;138788;-64
2021/09/02 05:53:27;;;;;;;12.50;6.30;;;;;;;14.96;71.71;99675.48;233867;1200;139594;-66
2021/09/02 05:58:30;;;;;;;13.80;6.90;;;;;;;15.04;71.59;99678.88;234042;1199;139075;-63
2021/09/02 06:03:33;;;;;;;14.00;6.90;;;;;;;15.14;71.82;99679.05;234182;1198;138301;-64
2021/09/02 06:08:36;;;;;;;14.90;6.80;;;;;;;15.25;71.67;99677.19;233998;1200;139204;-62
2021/09/02 06:13:40;;;;;;;11.90;6.40;;;;;;;15.27;71.44;99672.20;233937;1200;139795;-63
2021/09/02 06:18:42;;;;;;;13.70;6.70;;;;;;;15.32;71.43;99674.84;233946;1201;139671;-63
2021/09/02 06:23:46;;;;;;;12.70;6.90;;;;;;;15.42;71.53;99678.27;233784;1201;138884;-61
2021/09/02 06:28:49;;;;;;;15.90;6.70;;;;;;;15.54;71.54;99680.10;234144;1198;139256;-63
2021/09/02 06:33:55;;;;;;;16.00;6.90;;;;;;;15.57;71.14;99690.97;233927;1198;138401;-63
2021/09/02 06:38:58;;;;;;;14.20;7.40;;;;;;;15.54;70.88;99698.67;234011;1200;139185;-63
2021/09/02 06:44:02;;;;;;;11.30;6.60;;;;;;;15.52;70.91;99703.86;234034;1201;139198;-67
2021/09/02 06:49:05;;;;;;;8.60;6.40;;;;;;;15.54;70.73;99705.48;233453;1199;139352;-66
2021/09/02 06:54:08;;;;;;;10.60;7.00;;;;;;;15.59;70.73;99706.23;234053;1198;138749;-65
2021/09/02 06:59:11;;;;;;;13.00;7.10;;;;;;;15.60;70.34;99711.64;233914;1200;139484;-62
2021/09/02 07:04:14;;;;;;;8.40;6.60;;;;;;;15.63;70.26;99715.74;233714;1201;139025;-63
2021/09/02 07:09:17;;;;;;;8.90;6.10;;;;;;;15.67;70.23;99709.75;234123;1198;139439;-64
2021/09/02 07:14:20;;;;;;;10.60;5.90;;;;;;;15.71;70.10;99714.72;233604;1199;138582;-63
2021/09/02 07:19:24;;;;;;;8.00;5.10;;;;;;;15.75;69.95;99721.00;233956;1199;139326;-63
2021/09/02 07:24:27;;;;;;;8.80;5.90;;;;;;;15.80;69.76;99730.29;233766;1199;139702;-63
2021/09/02 07:29:31;;;;;;;8.00;5.80;;;;;;;15.92;69.66;99734.08;233774;1199;138421;-60
2021/09/02 07:34:34;;;;;;;9.80;6.00;;;;;;;16.04;70.16;99739.66;234082;1198;139334;-62
2021/09/02 07:39:38;;;;;;;8.60;6.10;;;;;;;16.18;70.42;99743.39;234118;1201;140309;-63
2021/09/02 07:44:41;;;;;;;8.40;5.40;;;;;;;16.23;69.78;99753.25;234000;1199;142533;-62
2021/09/02 07:49:44;;;;;;;9.00;5.50;;;;;;;16.26;69.41;99752.70;233695;1198;140328;-63
2021/09/02 07:54:47;;;;;;;11.20;5.50;;;;;;;16.27;68.84;99761.58;234013;1199;139081;-64
2021/09/02 07:59:50;;;;;;;8.90;5.20;;;;;;;16.33;68.84;99758.44;234045;1199;138534;-66
2021/09/02 08:04:53;;;;;;;9.20;4.80;;;;;;;16.42;68.70;99758.89;234025;1199;138469;-64
2021/09/02 08:09:56;;;;;;;8.50;4.50;;;;;;;16.49;68.42;99760.11;234165;1199;138068;-63
2021/09/02 08:14:59;;;;;;;7.60;4.80;;;;;;;16.56;68.22;99761.75;233825;1201;138672;-64
2021/09/02 08:20:03;;;;;;;8.20;5.00;;;;;;;16.59;67.77;99767.98;234000;1198;138592;-65
2021/09/02 08:25:09;;;;;;;;;;;;;;;16.60;67.63;99771.98;234144;1199;139563;-64
2021/09/02 08:30:15;;;;;;;11.10;5.00;;;;;;;16.65;67.39;99776.09;234132;1199;125897;-64
2021/09/02 08:35:22;;;;;;;5.50;4.30;;;;;;;16.74;67.38;99775.05;234075;1199;139337;-64
2021/09/02 08:40:28;;;;;;;7.20;4.20;;;;;;;16.88;67.25;99773.13;234104;1198;139209;-63
2021/09/02 08:45:32;;;;;;;7.80;4.90;;;;;;;16.99;66.78;99763.52;233872;1199;138512;-61
2021/09/02 08:50:39;;;;;;;8.60;5.00;;;;;;;17.08;66.52;99760.11;233570;1199;139560;-61
2021/09/02 08:55:41;;;;;;;23.40;15.90;;;;;;;17.17;66.41;99760.47;233493;1200;139411;-61
2021/09/02 09:00:45;;;;;;;8.00;5.40;;;;;;;17.25;66.18;99754.69;233386;1198;138967;-61
2021/09/02 09:05:57;;;;;;;7.60;4.40;;;;;;;17.29;65.94;99752.06;234096;1198;138953;-61
2021/09/02 09:11:21;;;;;;;8.10;4.80;;;;;;;17.34;65.79;99758.70;234108;1199;141103;-61
2021/09/02 09:16:46;;;;;;;6.40;4.10;;;;;;;17.39;65.29;99752.67;234035;1199;139164;-63
2021/09/02 09:21:59;;;;;;;9.10;4.90;;;;;;;17.48;65.37;99755.58;234102;1199;139379;-61
2021/09/02 09:27:09;;;;;;;11.50;4.20;;;;;;;17.58;65.25;99752.63;233501;1198;140168;-62
2021/09/02 09:32:17;;;;;;;7.90;4.00;;;;;;;17.63;65.10;99756.55;233507;1199;138346;-61
2021/09/02 09:37:21;;;;;;;7.30;3.80;;;;;;;17.64;64.75;99753.20;233818;1200;138363;-61
2021/09/02 09:42:25;;;;;;;195.30;133.70;;;;;;;17.67;64.29;99757.06;233972;1198;139591;-61
2021/09/02 09:47:33;;;;;;;12.30;8.60;;;;;;;17.73;64.22;99756.60;234098;1199;139750;-62
2021/09/02 09:52:46;;;;;;;9.20;5.00;;;;;;;17.81;64.07;99754.42;233919;1199;139522;-63
2021/09/02 09:57:49;;;;;;;9.00;4.50;;;;;;;17.90;64.02;99749.86;233672;1201;138761;-65
2021/09/02 10:02:52;;;;;;;8.70;3.80;;;;;;;17.98;63.85;99753.88;234066;1198;138059;-64
2021/09/02 10:07:55;;;;;;;5.80;3.40;;;;;;;18.10;63.59;99755.23;234122;1198;138842;-64
2021/09/02 10:13:00;;;;;;;6.30;3.40;;;;;;;18.15;63.05;99746.98;233989;1201;138818;-64
2021/09/02 10:18:03;;;;;;;6.70;3.70;;;;;;;18.17;63.05;99747.51;233954;1201;139534;-64
2021/09/02 10:23:07;;;;;;;6.00;3.00;;;;;;;18.32;62.88;99741.44;234005;1198;141848;-63
2021/09/02 10:28:12;;;;;;;12.00;3.20;;;;;;;18.39;62.35;99741.17;234091;1199;139224;-64
2021/09/02 10:33:32;;;;;;;7.20;2.90;;;;;;;18.58;62.14;99745.38;234037;1198;138425;-63
2021/09/02 10:38:36;;;;;;;5.60;3.00;;;;;;;18.61;61.58;99750.52;234031;1199;138378;-64
2021/09/02 10:43:53;;;;;;;4.60;2.70;;;;;;;18.58;61.17;99754.85;233903;1198;139193;-64
2021/09/02 10:49:24;;;;;;;4.20;2.50;;;;;;;18.69;61.05;99755.44;234055;1199;138048;-63
2021/09/02 10:54:31;;;;;;;7.30;2.50;;;;;;;18.82;60.68;99761.50;234058;1198;138433;-64
2021/09/02 10:59:53;;;;;;;4.20;2.80;;;;;;;18.82;60.20;99764.37;234025;1198;138144;-63
2021/09/02 11:05:01;;;;;;;4.20;2.20;;;;;;;18.77;60.10;99756.58;234090;1200;233736;-64
2021/09/02 11:10:20;;;;;;;4.20;2.50;;;;;;;18.77;60.25;99759.98;234188;1199;139470;-63
2021/09/02 11:15:25;;;;;;;3.60;2.80;;;;;;;18.82;60.00;99768.52;234134;1199;138642;-65
2021/09/02 11:20:31;;;;;;;3.80;2.30;;;;;;;18.83;59.83;99769.14;234117;1198;138700;-63
2021/09/02 11:25:51;;;;;;;3.80;2.50;;;;;;;18.80;59.38;99766.73;234089;1199;138994;-65
2021/09/02 11:30:54;;;;;;;4.20;2.40;;;;;;;18.75;59.06;99763.90;234037;1199;138238;-63
2021/09/02 11:35:59;;;;;;;4.80;2.00;;;;;;;18.75;59.20;99767.70;233896;1200;138135;-63
2021/09/02 11:41:16;;;;;;;7.50;2.60;;;;;;;18.78;59.15;99771.08;234097;1198;139649;-64
2021/09/02 11:46:21;;;;;;;7.30;2.60;;;;;;;18.76;59.20;99778.91;234179;1200;138533;-64
2021/09/02 11:51:27;;;;;;;5.40;2.60;;;;;;;18.74;59.14;99778.55;234074;1199;139608;-66
2021/09/02 11:56:31;;;;;;;5.10;2.60;;;;;;;18.73;59.05;99775.10;234032;1199;139153;-64
2021/09/02 12:01:41;;;;;;;4.30;2.20;;;;;;;18.72;58.90;99770.63;234078;1200;139257;-65
2021/09/02 12:06:47;;;;;;;5.80;2.50;;;;;;;18.89;58.97;99761.77;234137;1199;138465;-63
2021/09/02 12:11:50;;;;;;;3.80;2.60;;;;;;;19.11;58.72;99759.80;233922;1198;138219;-64
2021/09/02 12:17:11;;;;;;;4.10;2.40;;;;;;;19.37;58.56;99753.17;233959;1199;139762;-62
2021/09/02 12:22:17;;;;;;;5.30;2.60;;;;;;;19.77;58.19;99752.20;234074;1199;139678;-65
2021/09/02 12:27:43;;;;;;;5.80;2.70;;;;;;;20.04;57.88;99742.21;233906;1199;138496;-66
2021/09/02 12:32:46;;;;;;;5.00;3.10;;;;;;;20.32;57.76;99739.88;233909;1199;138763;-65
2021/09/02 12:37:49;;;;;;;9.80;3.30;;;;;;;20.45;56.99;99745.91;233569;1199;138541;-64
2021/09/02 12:42:53;;;;;;;5.90;3.10;;;;;;;20.32;56.76;99742.90;233848;1197;138690;-65
2021/09/02 12:48:00;;;;;;;6.80;3.30;;;;;;;20.20;56.65;99742.81;233879;1200;138889;-64
2021/09/02 12:53:08;;;;;;;5.60;2.80;;;;;;;20.03;56.54;99742.80;233877;1199;138702;-65
2021/09/02 12:58:12;;;;;;;5.80;2.70;;;;;;;19.86;56.42;99747.13;234163;1199;138487;-66
2021/09/02 13:03:16;;;;;;;4.40;2.80;;;;;;;19.69;56.37;99749.52;233927;1200;139771;-63
2021/09/02 13:08:19;;;;;;;4.60;2.90;;;;;;;19.55;56.36;99753.55;234059;1199;138908;-63
2021/09/02 13:13:22;;;;;;;144.40;104.20;;;;;;;19.51;56.36;99748.22;234027;1199;139592;-64
2021/09/02 13:18:25;;;;;;;5.50;4.10;;;;;;;19.55;56.40;99742.48;234028;1198;139100;-65
2021/09/02 13:23:28;;;;;;;5.00;3.70;;;;;;;19.48;56.38;99737.83;233913;1198;139186;-66
2021/09/02 13:28:31;;;;;;;5.20;3.00;;;;;;;19.39;56.39;99738.06;233588;1200;139060;-65
2021/09/02 13:33:34;;;;;;;5.20;3.10;;;;;;;19.32;56.40;99746.78;234039;1200;138716;-65
2021/09/02 13:38:38;;;;;;;7.20;3.40;;;;;;;19.23;56.25;99743.66;233891;1199;138820;-67
2021/09/02 13:43:41;;;;;;;5.50;3.10;;;;;;;19.13;56.29;99748.29;233999;1199;137839;-66
2021/09/02 13:48:44;;;;;;;5.70;3.00;;;;;;;19.05;56.48;99751.50;233947;1200;139303;-66
2021/09/02 13:53:47;;;;;;;6.00;3.20;;;;;;;18.99;56.54;99749.11;233933;1200;138445;-66
2021/09/02 13:58:50;;;;;;;7.90;3.30;;;;;;;18.95;56.74;99752.69;233869;1198;139238;-66
2021/09/02 14:03:54;;;;;;;9.40;3.70;;;;;;;18.93;57.08;99755.42;233318;1198;138564;-65
2021/09/02 14:08:57;;;;;;;6.90;3.90;;;;;;;18.89;57.08;99751.56;233965;1199;138417;-65
2021/09/02 14:14:00;;;;;;;7.40;3.70;;;;;;;18.86;57.18;99755.96;233987;1200;139022;-66
2021/09/02 14:19:03;;;;;;;7.40;3.70;;;;;;;18.83;57.23;99749.39;233719;1199;139092;-65
2021/09/02 14:24:06;;;;;;;6.90;3.70;;;;;;;18.81;57.36;99744.67;232709;1199;138307;-66
2021/09/02 14:29:09;;;;;;;7.70;3.90;;;;;;;18.80;57.45;99749.13;234006;1198;138398;-66
2021/09/02 14:34:12;;;;;;;27.30;18.60;;;;;;;18.77;57.58;99753.31;234158;1199;138398;-65
2021/09/02 14:39:16;;;;;;;6.70;4.50;;;;;;;18.78;57.74;99753.41;233932;1201;139464;-65
2021/09/02 14:44:19;;;;;;;7.90;3.90;;;;;;;18.78;57.72;99755.78;233914;1200;138177;-64
2021/09/02 14:49:22;;;;;;;8.30;3.70;;;;;;;18.76;57.81;99748.55;234032;1199;138766;-64
2021/09/02 14:54:25;;;;;;;5.50;3.70;;;;;;;18.78;57.95;99747.14;234068;1198;138903;-65
2021/09/02 14:59:28;;;;;;;7.70;4.20;;;;;;;18.78;58.02;99738.10;233838;1199;139023;-64
2021/09/02 15:04:31;;;;;;;6.90;4.20;;;;;;;18.82;58.06;99732.26;233969;1199;139434;-64
2021/09/02 15:09:34;;;;;;;7.40;4.30;;;;;;;18.82;58.19;99732.92;234096;1199;139305;-64
2021/09/02 15:14:37;;;;;;;6.60;4.20;;;;;;;18.81;58.30;99729.79;234114;1198;138501;-64
2021/09/02 15:19:40;;;;;;;8.40;4.40;;;;;;;18.80;58.27;99729.72;233949;1199;138322;-65
2021/09/02 15:24:43;;;;;;;7.70;4.20;;;;;;;18.78;58.36;99732.42;233961;1199;138367;-64
2021/09/02 15:29:50;;;;;;;8.50;4.40;;;;;;;18.77;58.56;99735.00;233856;1198;138644;-65
2021/09/02 15:34:53;;;;;;;10.20;5.00;;;;;;;18.74;58.57;99732.36;233946;1200;139966;-64
2021/09/02 15:40:02;;;;;;;10.00;5.80;;;;;;;18.73;58.81;99726.75;234068;1199;139025;-63
2021/09/02 15:45:07;;;;;;;10.50;4.60;;;;;;;18.70;58.91;99726.94;234007;1199;138898;-67
2021/09/02 15:50:10;;;;;;;7.90;4.70;;;;;;;18.68;58.99;99725.67;234067;1198;139247;-64
2021/09/02 15:55:14;;;;;;;82.00;52.70;;;;;;;18.66;59.12;99726.69;234010;1198;138754;-64
2021/09/02 16:00:17;;;;;;;10.80;7.50;;;;;;;18.66;59.32;99724.01;233960;1199;140765;-65
2021/09/02 16:05:20;;;;;;;10.00;5.10;;;;;;;18.66;59.42;99721.12;233948;1199;138278;-64
2021/09/02 16:10:23;;;;;;;8.90;5.20;;;;;;;18.66;59.57;99712.87;234012;1199;139068;-63
2021/09/02 16:15:26;;;;;;;8.80;4.70;;;;;;;18.65;59.62;99714.94;234056;1198;139808;-62
2021/09/02 16:20:29;;;;;;;10.70;5.20;;;;;;;18.64;59.65;99708.73;233380;1198;138558;-62
2021/09/02 16:25:33;;;;;;;12.30;5.40;;;;;;;18.62;59.66;99709.27;233711;1199;143700;-62
2021/09/02 16:30:37;;;;;;;13.20;5.10;;;;;;;18.58;59.74;99710.27;233974;1199;138764;-66
2021/09/02 16:35:50;;;;;;;10.40;5.20;;;;;;;18.56;59.98;99708.31;233652;1198;138297;-63
2021/09/02 16:41:08;;;;;;;155.90;97.50;;;;;;;18.54;60.18;99706.89;232863;1202;139201;-62
2021/09/02 16:46:19;;;;;;;22.50;9.80;;;;;;;18.56;60.45;99709.19;232943;1204;139738;-64
2021/09/02 16:51:35;;;;;;;65.40;46.60;;;;;;;18.62;60.55;99704.02;232806;1204;138947;-62
2021/09/02 16:56:51;;;;;;;12.50;7.90;;;;;;;18.63;60.55;99702.65;232414;1201;139686;-62
2021/09/02 17:01:55;;;;;;;9.60;5.80;;;;;;;18.56;60.27;99704.95;231982;1202;139317;-63
2021/09/02 17:07:02;;;;;;;14.40;5.30;;;;;;;18.44;60.28;99703.80;232110;1201;138559;-65
2021/09/02 17:12:11;;;;;;;145.00;105.50;;;;;;;18.32;60.38;99703.55;232298;1199;139168;-62
2021/09/02 17:17:15;;;;;;;14.40;8.40;;;;;;;18.25;60.68;99701.64;232670;1200;139319;-63
2021/09/02 17:22:19;;;;;;;12.70;7.00;;;;;;;18.18;60.84;99701.23;232879;1201;138920;-64
2021/09/02 17:27:22;;;;;;;196.90;118.50;;;;;;;18.14;61.12;99707.88;233621;1201;138793;-65
2021/09/02 17:32:26;;;;;;;16.80;9.10;;;;;;;18.15;61.30;99704.88;233457;1201;139704;-66
2021/09/02 17:37:29;;;;;;;13.60;8.30;;;;;;;18.12;61.08;99703.51;233800;1201;138290;-64
2021/09/02 17:42:32;;;;;;;14.80;7.80;;;;;;;18.09;61.21;99707.25;233929;1201;139080;-64
2021/09/02 17:47:36;;;;;;;14.20;6.60;;;;;;;18.07;61.46;99712.25;234032;1199;139470;-64
2021/09/02 17:52:39;;;;;;;11.20;6.80;;;;;;;18.10;61.57;99715.37;232781;1201;139206;-63
2021/09/02 17:57:43;;;;;;;88.50;54.40;;;;;;;18.11;61.67;99715.86;233924;1201;138879;-63
2021/09/02 18:02:46;;;;;;;13.30;7.50;;;;;;;18.00;61.45;99714.80;233935;1201;138965;-63
2021/09/02 18:07:49;;;;;;;11.40;6.70;;;;;;;17.87;61.32;99724.67;233887;1201;141265;-63
2021/09/02 18:12:52;;;;;;;12.10;6.70;;;;;;;17.72;61.36;99730.15;233588;1198;140137;-63
2021/09/02 18:17:55;;;;;;;83.00;59.70;;;;;;;17.59;61.58;99733.83;234030;1199;139810;-61
2021/09/02 18:22:59;;;;;;;14.20;7.40;;;;;;;17.49;61.70;99741.80;233995;1198;139023;-62
2021/09/02 18:28:02;;;;;;;10.90;7.10;;;;;;;17.41;61.87;99746.81;234084;1200;139220;-60
2021/09/02 18:33:05;;;;;;;11.30;7.90;;;;;;;17.26;61.94;99757.84;233951;1200;139010;-60
2021/09/02 18:38:08;;;;;;;15.60;7.60;;;;;;;17.15;62.03;99758.69;233937;1198;139733;-66
2021/09/02 18:43:13;;;;;;;16.00;8.30;;;;;;;17.11;62.59;99757.40;234030;1198;142383;-64
2021/09/02 18:48:18;;;;;;;16.40;7.90;;;;;;;17.08;62.67;99754.97;233993;1201;139069;-59
2021/09/02 18:53:23;;;;;;;14.70;8.60;;;;;;;17.01;62.71;99754.01;234065;1199;139019;-61
2021/09/02 18:58:27;;;;;;;16.80;8.50;;;;;;;16.94;63.03;99753.35;234021;1199;138977;-63
2021/09/02 19:03:32;;;;;;;16.10;8.60;;;;;;;16.88;63.17;99753.48;232363;1201;138432;-65
2021/09/02 19:08:36;;;;;;;17.50;9.20;;;;;;;16.75;63.36;99747.05;233994;1200;139473;-63
2021/09/02 19:13:42;;;;;;;17.70;9.10;;;;;;;16.66;63.53;99747.91;233864;1199;142046;-62
2021/09/02 19:18:47;;;;;;;18.50;9.00;;;;;;;16.63;63.93;99738.14;234054;1198;138966;-63
2021/09/02 19:23:52;;;;;;;21.20;10.20;;;;;;;16.65;64.18;99732.04;234043;1199;138968;-62
2021/09/02 19:28:57;;;;;;;16.10;9.60;;;;;;;16.66;64.49;99732.11;234002;1201;140372;-63
2021/09/02 19:34:03;;;;;;;17.80;10.40;;;;;;;16.63;64.46;99727.92;234092;1201;138232;-61
2021/09/02 19:39:06;;;;;;;16.00;9.30;;;;;;;16.59;64.48;99726.05;234044;1198;139782;-61
2021/09/02 19:44:09;;;;;;;15.10;9.20;;;;;;;16.58;64.70;99725.73;233921;1195;139425;-63
2021/09/02 19:49:14;;;;;;;18.80;9.90;;;;;;;16.58;65.00;99723.80;233984;1200;139083;-60
2021/09/02 19:54:35;;;;;;;17.10;9.90;;;;;;;16.55;65.14;99722.41;234008;1199;140077;-60
2021/09/02 19:59:46;;;;;;;16.60;9.90;;;;;;;16.52;65.18;99719.58;233692;1199;138518;-60
2021/09/02 20:04:55;;;;;;;19.10;10.90;;;;;;;16.44;65.17;99716.46;233992;1200;139349;-60
2021/09/02 20:10:03;;;;;;;17.50;11.00;;;;;;;16.36;65.23;99722.77;233832;1201;141342;-62
2021/09/02 20:15:08;;;;;;;16.20;9.70;;;;;;;16.30;65.26;99721.98;233944;1201;139962;-60
2021/09/02 20:20:13;;;;;;;14.80;10.70;;;;;;;16.26;65.54;99725.98;234054;1199;138999;-60
2021/09/02 20:25:16;;;;;;;20.20;11.30;;;;;;;16.24;65.54;99733.65;233874;1200;140150;-59
2021/09/02 20:30:20;;;;;;;18.10;11.50;;;;;;;16.22;65.60;99735.08;234066;1199;138848;-61
2021/09/02 20:35:25;;;;;;;18.90;11.00;;;;;;;16.19;65.79;99739.80;234043;1199;140079;-60
2021/09/02 20:40:37;;;;;;;20.80;12.20;;;;;;;16.12;65.76;99742.64;233589;1201;139167;-62
2021/09/02 20:45:42;;;;;;;18.70;11.50;;;;;;;16.04;65.93;99748.96;233807;1198;140322;-62
2021/09/02 20:50:45;;;;;;;18.80;12.50;;;;;;;16.01;65.86;99752.91;233025;1199;139333;-64
2021/09/02 20:55:53;;;;;;;19.90;11.40;;;;;;;15.99;66.32;99755.77;234021;1200;138889;-63
2021/09/02 21:00:57;;;;;;;18.60;11.70;;;;;;;15.97;66.27;99753.44;233948;1199;138886;-63
2021/09/02 21:06:01;;;;;;;21.40;11.20;;;;;;;15.94;66.37;99755.45;234024;1195;138667;-60
2021/09/02 21:11:04;;;;;;;16.70;10.60;;;;;;;15.89;66.50;99754.54;234018;1199;138663;-62
2021/09/02 21:16:08;;;;;;;19.50;10.90;;;;;;;15.88;66.52;99763.04;233985;1198;140409;-62
2021/09/02 21:21:19;;;;;;;20.30;11.30;;;;;;;15.90;66.64;99765.74;234023;1199;139124;-62
2021/09/02 21:26:27;;;;;;;21.50;11.40;;;;;;;15.91;66.73;99767.64;234022;1198;139472;-64
2021/09/02 21:31:36;;;;;;;21.00;11.80;;;;;;;15.88;66.76;99767.67;234053;1199;139181;-65
2021/09/02 21:36:43;;;;;;;19.40;11.70;;;;;;;15.83;66.57;99766.62;233279;1198;138966;-61
2021/09/02 21:41:49;;;;;;;22.30;11.60;;;;;;;15.72;66.71;99760.20;234036;1196;139220;-61
2021/09/02 21:46:56;;;;;;;17.30;10.30;;;;;;;15.70;67.14;99767.67;233786;1199;139886;-62
2021/09/02 21:52:00;;;;;;;19.00;11.60;;;;;;;15.70;66.88;99763.59;234210;1199;139365;-65
2021/09/02 21:57:03;;;;;;;24.60;12.90;;;;;;;15.68;67.04;99768.58;234055;1198;140096;-60
2021/09/02 22:02:07;;;;;;;19.30;11.70;;;;;;;15.67;67.25;99766.29;233605;1199;141956;-60
2021/09/02 22:07:11;;;;;;;22.20;11.70;;;;;;;15.64;67.38;99762.02;232365;1199;138668;-60
2021/09/02 22:12:24;;;;;;;18.40;11.50;;;;;;;15.59;67.33;99755.35;232652;1200;138976;-63
2021/09/02 22:17:49;;;;;;;17.80;11.30;;;;;;;15.52;67.32;99755.36;232584;1202;139237;-61
2021/09/02 22:22:56;;;;;;;18.80;12.20;;;;;;;15.48;67.65;99749.20;233727;1200;139235;-61
2021/09/02 22:28:01;;;;;;;19.60;12.20;;;;;;;15.47;67.74;99744.67;233989;1199;138459;-61
2021/09/02 22:33:10;;;;;;;22.00;13.20;;;;;;;15.44;67.81;99740.00;234120;1199;139731;-61
2021/09/02 22:38:15;;;;;;;19.30;12.60;;;;;;;15.43;68.06;99734.70;234045;1198;139708;-64
2021/09/02 22:43:19;;;;;;;25.40;14.90;;;;;;;15.40;67.79;99731.87;233644;1199;139658;-63
2021/09/02 22:48:24;;;;;;;24.40;13.20;;;;;;;15.38;68.01;99725.19;234085;1199;141246;-60
2021/09/02 22:53:30;;;;;;;22.30;12.60;;;;;;;15.37;68.16;99722.62;234081;1199;140720;-62
2021/09/02 22:58:34;;;;;;;19.50;13.00;;;;;;;15.36;68.30;99724.65;234259;1196;139228;-58
2021/09/02 23:03:38;;;;;;;24.00;13.30;;;;;;;15.33;68.05;99721.27;234200;1198;140148;-59
2021/09/02 23:08:50;;;;;;;21.80;12.00;;;;;;;15.28;68.15;99716.96;234091;1199;139400;-60